Time;durP1;ratioP1;P1;durP2;ratioP2;P2;SDS_P1;SDS_P2;PMS_P1;PMS_P2;Temp;Humidity;BMP_temperature;BMP_pressure;BME280_temperature;BME280_humidity;BME280_pressure;Samples;Min_cycle;Max_cycle;Signal;HPM_P1;HPM_P2
2022/05/22 00:01:32;;;;;;;2.28;2.00;;;;;;;2.02;74.40;95153.66;6233338;28;20042;-65
2022/05/22 00:04:38;;;;;;;2.95;2.75;;;;;;;2.12;73.80;95151.34;6239106;28;20395;-66
2022/05/22 00:07:42;;;;;;;3.92;3.15;;;;;;;1.99;74.09;95156.44;6220384;28;20041;-65
2022/05/22 00:10:46;;;;;;;2.70;2.17;;;;;;;1.89;74.53;95151.88;6230288;28;20058;-66
2022/05/22 00:13:51;;;;;;;3.33;3.03;;;;;;;1.84;74.21;95154.75;6226320;28;20038;-65
2022/05/22 00:16:55;;;;;;;4.28;2.97;;;;;;;1.76;74.16;95147.41;6234083;28;20099;-66
2022/05/22 00:20:00;;;;;;;3.72;3.28;;;;;;;1.81;74.31;95154.91;6237204;28;20045;-66
2022/05/22 00:23:07;;;;;;;3.78;3.08;;;;;;;1.63;75.08;95155.97;6232913;28;20046;-66
2022/05/22 00:26:12;;;;;;;4.15;3.38;;;;;;;1.66;75.00;95161.81;6234415;28;20503;-65
2022/05/22 00:29:18;;;;;;;5.00;3.22;;;;;;;1.59;75.36;95165.69;6231407;28;20050;-65
2022/05/22 00:32:23;;;;;;;3.13;2.80;;;;;;;1.53;76.05;95169.47;6225983;28;20042;-65
2022/05/22 00:35:28;;;;;;;3.25;2.60;;;;;;;1.64;76.12;95168.00;6221216;28;20045;-66
2022/05/22 00:38:31;;;;;;;3.13;2.33;;;;;;;1.71;76.42;95175.38;6230634;28;20044;-65
2022/05/22 00:41:37;;;;;;;3.22;2.60;;;;;;;1.89;76.17;95172.63;6225313;28;20419;-65
2022/05/22 00:44:42;;;;;;;3.05;2.75;;;;;;;1.94;75.66;95181.81;6233661;28;20038;-66
2022/05/22 00:47:50;;;;;;;3.90;3.17;;;;;;;1.99;75.84;95184.16;6241724;28;20099;-65
2022/05/22 00:51:03;;;;;;;4.15;3.03;;;;;;;2.08;75.97;95182.78;6248676;28;20132;-66
2022/05/22 00:54:40;;;;;;;3.05;2.83;;;;;;;2.23;75.94;95182.69;6231167;28;20132;-66
2022/05/22 00:58:10;;;;;;;3.40;2.58;;;;;;;2.53;74.92;95176.63;6234160;28;20045;-66
2022/05/22 01:01:11;;;;;;;2.75;2.55;;;;;;;2.63;74.74;95188.13;6220321;28;20415;-66
2022/05/22 01:04:20;;;;;;;;;;;;;;;2.79;74.59;95184.59;6236770;28;20049;-66
2022/05/22 01:07:23;;;;;;;3.22;2.58;;;;;;;2.64;75.02;95176.81;6238199;28;19921;-66
2022/05/22 01:10:34;;;;;;;3.05;2.65;;;;;;;2.74;74.84;95176.25;6228819;28;20053;-65
2022/05/22 01:13:42;;;;;;;3.60;3.03;;;;;;;2.97;74.15;95186.03;6233320;28;20041;-66
2022/05/22 01:16:48;;;;;;;2.78;1.77;;;;;;;3.16;73.80;95183.16;6218493;28;20053;-65
2022/05/22 01:20:00;;;;;;;3.38;2.65;;;;;;;3.32;73.44;95167.44;6236886;28;20050;-65
2022/05/22 01:23:05;;;;;;;3.75;2.83;;;;;;;3.41;73.35;95182.44;6235235;28;20072;-64
2022/05/22 01:26:10;;;;;;;3.28;2.97;;;;;;;3.46;73.17;95185.59;6229018;28;20531;-65
2022/05/22 01:29:17;;;;;;;2.60;2.17;;;;;;;3.66;72.88;95188.69;6224089;28;20413;-66
2022/05/22 01:32:22;;;;;;;3.00;2.75;;;;;;;3.75;72.34;95201.91;6229855;28;20045;-66
2022/05/22 01:35:28;;;;;;;3.47;2.50;;;;;;;3.89;71.77;95200.19;6222503;28;20045;-66
2022/05/22 01:38:33;;;;;;;2.60;2.40;;;;;;;3.86;71.60;95216.84;6226898;28;20034;-66
2022/05/22 01:41:37;;;;;;;3.80;2.92;;;;;;;3.92;71.59;95226.00;6224564;28;20045;-67
2022/05/22 01:44:42;;;;;;;3.08;2.78;;;;;;;4.08;71.17;95223.22;6229469;28;20033;-65
2022/05/22 01:47:44;;;;;;;;;;;;;;;4.55;69.47;95227.06;6236383;28;20045;-65
2022/05/22 01:50:50;;;;;;;3.55;2.45;;;;;;;4.36;70.16;95224.84;6216249;28;19987;-66
2022/05/22 01:53:54;;;;;;;2.80;2.50;;;;;;;4.53;69.47;95234.13;6231852;28;20030;-65
2022/05/22 01:56:58;;;;;;;2.75;2.50;;;;;;;4.55;69.41;95238.31;6235672;28;20419;-65
2022/05/22 02:00:01;;;;;;;;;;;;;;;4.65;69.22;95238.53;6238435;28;20392;-65
2022/05/22 02:03:07;;;;;;;2.90;2.45;;;;;;;4.86;68.44;95242.28;6244239;28;19917;-65
2022/05/22 02:06:11;;;;;;;2.47;2.20;;;;;;;4.93;67.92;95243.53;6243478;28;20419;-65
2022/05/22 02:09:17;;;;;;;2.67;2.30;;;;;;;4.94;67.98;95234.75;6228393;28;20050;-66
2022/05/22 02:12:21;;;;;;;3.05;2.78;;;;;;;5.12;67.60;95237.91;6222852;28;20492;-66
2022/05/22 02:15:26;;;;;;;2.95;2.38;;;;;;;5.28;66.95;95240.25;6235057;28;20042;-66
2022/05/22 02:18:32;;;;;;;2.83;2.55;;;;;;;5.39;66.33;95244.72;6226152;28;20046;-66
2022/05/22 02:21:37;;;;;;;2.83;2.40;;;;;;;5.43;66.70;95253.97;6219100;28;20049;-66
2022/05/22 02:24:41;;;;;;;4.38;2.53;;;;;;;5.54;66.27;95250.63;6203395;28;20050;-65
2022/05/22 02:27:44;;;;;;;;;;;;;;;5.68;65.54;95253.09;6231550;28;20030;-65
2022/05/22 02:31:01;;;;;;;4.45;2.33;;;;;;;5.64;65.23;95254.25;6222037;28;20303;-65
2022/05/22 02:34:06;;;;;;;2.10;1.90;;;;;;;5.74;64.76;95268.31;6233822;28;20492;-66
2022/05/22 02:37:10;;;;;;;3.13;2.30;;;;;;;5.77;64.88;95265.47;6231402;28;20045;-65
2022/05/22 02:40:16;;;;;;;2.83;2.22;;;;;;;5.82;65.02;95268.59;6221102;28;20041;-65
2022/05/22 02:43:21;;;;;;;2.83;2.17;;;;;;;5.75;64.88;95264.78;6231393;28;20045;-66
2022/05/22 02:46:26;;;;;;;2.83;2.50;;;;;;;5.73;64.57;95274.47;6240501;28;20037;-66
2022/05/22 02:49:36;;;;;;;2.65;2.45;;;;;;;5.69;64.64;95267.81;6219585;28;20042;-66
2022/05/22 02:52:40;;;;;;;3.28;2.85;;;;;;;5.64;64.79;95254.25;6229216;28;20037;-66
2022/05/22 02:55:45;;;;;;;2.95;2.60;;;;;;;5.84;64.23;95271.94;6226110;28;20041;-65
2022/05/22 02:58:50;;;;;;;3.20;2.72;;;;;;;5.84;64.30;95260.66;6228631;28;20041;-64
2022/05/22 03:01:55;;;;;;;2.40;2.20;;;;;;;5.97;63.26;95271.06;6225900;28;20505;-67
2022/05/22 03:04:58;;;;;;;;;;;;;;;5.96;63.04;95264.19;6215532;28;20527;-64
2022/05/22 03:08:03;;;;;;;2.83;2.42;;;;;;;6.14;61.88;95262.84;6227997;28;19921;-65
2022/05/22 03:11:08;;;;;;;2.95;2.20;;;;;;;6.16;62.36;95271.41;6229803;28;20392;-66
2022/05/22 03:14:13;;;;;;;3.78;3.10;;;;;;;6.17;62.27;95267.88;6223371;28;20045;-66
2022/05/22 03:17:19;;;;;;;4.90;3.33;;;;;;;6.29;61.76;95266.13;6232990;28;20140;-71
2022/05/22 03:20:23;;;;;;;5.28;3.13;;;;;;;6.26;62.04;95269.81;6230380;28;20038;-64
2022/05/22 03:23:28;;;;;;;6.10;2.70;;;;;;;6.23;62.44;95272.63;6231441;28;20042;-65
2022/05/22 03:26:33;;;;;;;4.20;2.83;;;;;;;6.36;62.26;95277.78;6234441;28;20037;-64
2022/05/22 03:29:39;;;;;;;2.97;2.58;;;;;;;6.58;61.09;95279.66;6233789;28;20053;-65
2022/05/22 03:32:44;;;;;;;2.33;2.13;;;;;;;6.89;59.75;95279.97;6231724;28;20041;-66
2022/05/22 03:35:48;;;;;;;3.60;2.67;;;;;;;7.13;58.29;95280.72;6217425;28;20045;-68
2022/05/22 03:38:53;;;;;;;2.78;2.22;;;;;;;7.07;59.41;95283.78;6239278;28;20061;-67
2022/05/22 03:41:58;;;;;;;2.25;1.80;;;;;;;7.49;58.06;95286.66;6235298;28;20053;-66
2022/05/22 03:45:03;;;;;;;2.83;2.55;;;;;;;7.95;56.59;95285.66;6227181;28;20045;-68
2022/05/22 03:48:06;;;;;;;6.72;4.90;;;;;;;8.32;55.43;95303.66;6228156;28;20132;-68
2022/05/22 03:51:11;;;;;;;4.50;2.63;;;;;;;8.76;53.73;95297.44;6234178;28;20073;-66
2022/05/22 03:54:16;;;;;;;1.67;1.48;;;;;;;9.30;51.97;95300.81;6219403;28;20054;-68
2022/05/22 03:57:19;;;;;;;;;;;;;;;9.82;51.68;95296.34;6229503;28;20033;-63
2022/05/22 04:00:24;;;;;;;1.50;1.38;;;;;;;9.98;50.91;95301.06;6249887;28;20394;-62
2022/05/22 04:03:29;;;;;;;1.92;1.63;;;;;;;10.04;49.81;95302.34;6227359;28;20130;-64
2022/05/22 04:06:34;;;;;;;1.40;1.30;;;;;;;10.06;49.40;95295.16;6243404;28;20444;-64
2022/05/22 04:09:39;;;;;;;1.70;1.58;;;;;;;10.45;48.72;95292.63;6231459;28;20058;-71
2022/05/22 04:12:43;;;;;;;;;;;;;;;11.13;47.46;95303.94;6211345;28;20041;-63
2022/05/22 04:15:47;;;;;;;2.20;1.50;;;;;;;11.21;45.20;95288.28;6225701;28;20415;-65
2022/05/22 04:18:52;;;;;;;1.60;1.15;;;;;;;11.31;45.60;95287.41;6234807;28;20050;-66
2022/05/22 04:21:57;;;;;;;2.30;1.20;;;;;;;11.46;43.20;95289.44;6249695;28;20037;-64
2022/05/22 04:25:11;;;;;;;1.20;1.10;;;;;;;11.38;43.11;95280.56;6243301;28;20041;-65
2022/05/22 04:28:16;;;;;;;2.65;1.52;;;;;;;11.02;43.93;95285.66;6248782;28;20042;-65
2022/05/22 04:31:20;;;;;;;1.33;1.05;;;;;;;11.10;42.18;95283.16;6233868;28;20034;-65
2022/05/22 04:34:24;;;;;;;;;;;;;;;10.98;42.75;95300.06;6228270;28;20123;-65
2022/05/22 04:37:29;;;;;;;1.20;1.10;;;;;;;11.13;42.57;95292.59;6246500;28;19917;-65
2022/05/22 04:40:33;;;;;;;1.88;1.25;;;;;;;11.46;41.54;95299.13;6234634;28;20033;-65
2022/05/22 04:43:36;;;;;;;2.35;1.25;;;;;;;11.62;41.22;95294.09;6232495;28;20041;-64
2022/05/22 04:46:41;;;;;;;2.05;1.00;;;;;;;11.74;41.02;95315.00;6227132;28;20046;-65
2022/05/22 04:49:50;;;;;;;2.00;1.42;;;;;;;11.51;41.08;95302.16;6233974;28;20041;-65
2022/05/22 04:52:56;;;;;;;0.77;0.77;;;;;;;12.23;40.59;95311.19;6232486;28;20423;-65
2022/05/22 04:56:02;;;;;;;0.95;0.90;;;;;;;12.25;39.88;95311.84;6223889;28;20033;-65
2022/05/22 04:59:08;;;;;;;1.13;1.02;;;;;;;12.31;40.32;95303.38;6224882;28;20038;-64
2022/05/22 05:02:13;;;;;;;2.72;1.10;;;;;;;12.50;40.03;95294.47;6220262;28;20432;-66
2022/05/22 05:05:18;;;;;;;1.42;1.30;;;;;;;12.68;39.99;95309.47;6223563;28;20038;-65
2022/05/22 05:08:25;;;;;;;2.67;1.17;;;;;;;13.28;38.74;95299.13;6226268;28;20472;-65
2022/05/22 05:11:30;;;;;;;1.30;0.90;;;;;;;13.31;37.78;95314.66;6223705;28;20058;-66
2022/05/22 05:14:35;;;;;;;0.68;0.68;;;;;;;13.90;36.13;95301.63;6226291;28;20042;-66
2022/05/22 05:17:42;;;;;;;0.90;0.90;;;;;;;13.34;35.93;95277.38;6218191;28;20042;-65
2022/05/22 05:20:49;;;;;;;1.00;0.90;;;;;;;13.28;36.17;95293.84;6220880;28;20042;-65
2022/05/22 05:23:55;;;;;;;1.13;0.73;;;;;;;14.07;35.51;95286.66;6217957;28;20041;-65
2022/05/22 05:27:01;;;;;;;1.08;0.88;;;;;;;15.82;32.92;95295.22;6225564;28;20045;-65
2022/05/22 05:30:05;;;;;;;0.65;0.60;;;;;;;16.84;31.15;95300.56;6226871;28;20412;-65
2022/05/22 05:33:10;;;;;;;2.03;0.70;;;;;;;17.85;29.58;95296.69;6227404;28;20041;-65
2022/05/22 05:36:15;;;;;;;1.17;0.77;;;;;;;20.02;26.57;95294.84;6224115;28;20037;-65
2022/05/22 05:39:20;;;;;;;2.13;0.77;;;;;;;21.55;24.12;95291.84;6223113;28;20038;-65
2022/05/22 05:42:23;;;;;;;0.80;0.77;;;;;;;21.44;23.49;95306.66;6220088;28;20034;-65
2022/05/22 05:45:28;;;;;;;1.17;0.50;;;;;;;21.79;23.42;95295.72;6221284;28;20038;-65
2022/05/22 05:48:33;;;;;;;0.85;0.80;;;;;;;22.38;23.21;95292.91;6222577;28;20103;-65
2022/05/22 05:51:37;;;;;;;0.43;0.40;;;;;;;22.17;22.54;95282.47;6218376;28;20045;-65
2022/05/22 05:54:43;;;;;;;0.68;0.60;;;;;;;21.91;22.35;95296.72;6209666;28;20038;-65
2022/05/22 05:57:47;;;;;;;0.93;0.68;;;;;;;20.70;23.22;95276.25;6222475;28;20046;-66
2022/05/22 06:00:51;;;;;;;0.70;0.50;;;;;;;20.13;23.66;95291.63;6228258;28;20042;-65
2022/05/22 06:03:56;;;;;;;0.40;0.38;;;;;;;21.19;22.90;95293.81;6219958;28;20041;-65
2022/05/22 06:07:03;;;;;;;0.73;0.50;;;;;;;20.47;22.60;95297.94;6224099;28;20428;-66
2022/05/22 06:10:09;;;;;;;0.60;0.50;;;;;;;22.07;21.58;95303.50;6224223;28;20423;-65
2022/05/22 06:13:16;;;;;;;1.83;0.40;;;;;;;23.86;19.96;95307.13;6226003;28;20041;-66
2022/05/22 06:16:19;;;;;;;0.70;0.50;;;;;;;23.95;19.67;95320.06;6227253;28;20037;-65
2022/05/22 06:22:49;;;;;;;0.77;0.60;;;;;;;18.92;25.41;95330.03;6218490;28;20046;-65
2022/05/22 06:25:54;;;;;;;0.82;0.40;;;;;;;17.01;28.35;95320.72;6216236;28;20042;-65
2022/05/22 06:28:58;;;;;;;1.38;0.90;;;;;;;15.00;31.72;95313.00;6224060;28;20046;-65
2022/05/22 06:32:03;;;;;;;2.58;1.02;;;;;;;13.59;35.21;95327.75;6221149;28;20212;-66
2022/05/22 06:35:12;;;;;;;0.60;0.60;;;;;;;12.14;39.43;95343.69;6217285;28;20034;-65
2022/05/22 06:41:40;;;;;;;2.88;1.83;;;;;;;8.12;50.10;95376.00;6223144;28;21062;-63
2022/05/22 06:44:42;;;;;;;;;;;;;;;7.25;54.02;95364.44;6210106;28;20068;-64
2022/05/22 06:47:48;;;;;;;1.85;1.52;;;;;;;6.87;57.49;95342.00;6220809;28;19921;-64
2022/05/22 06:50:52;;;;;;;1.98;1.70;;;;;;;6.62;59.06;95346.41;6219343;28;20042;-63
2022/05/22 06:53:55;;;;;;;;;;;;;;;7.88;58.71;95348.16;6218273;28;20034;-64
2022/05/22 06:56:58;;;;;;;2.70;1.85;;;;;;;9.28;57.12;95344.72;6221644;28;19925;-64
2022/05/22 07:00:03;;;;;;;2.00;1.30;;;;;;;13.17;49.42;95345.06;6224942;28;20038;-64
2022/05/22 07:03:07;;;;;;;0.68;0.68;;;;;;;18.22;39.19;95340.19;6223238;28;20128;-65
2022/05/22 07:06:11;;;;;;;0.35;0.30;;;;;;;19.00;34.82;95330.72;6224346;28;20041;-65
2022/05/22 07:09:17;;;;;;;0.88;0.60;;;;;;;19.93;30.90;95328.06;6230527;28;20054;-65
2022/05/22 07:12:22;;;;;;;0.88;0.73;;;;;;;21.26;28.68;95328.63;6226826;28;20038;-66
2022/05/22 07:15:26;;;;;;;0.40;0.40;;;;;;;23.92;25.60;95338.47;6220397;28;20050;-65
2022/05/22 07:18:32;;;;;;;0.20;0.20;;;;;;;26.00;22.28;95333.00;6222155;28;20033;-65
2022/05/22 07:21:36;;;;;;;0.95;0.20;;;;;;;23.01;23.06;95339.69;6206162;28;20519;-66
2022/05/22 07:24:40;;;;;;;0.20;0.20;;;;;;;21.15;25.34;95354.13;6207077;28;20053;-67
2022/05/22 07:27:45;;;;;;;0.60;0.43;;;;;;;21.49;25.09;95338.97;6222454;28;20033;-66
2022/05/22 07:30:50;;;;;;;0.13;0.13;;;;;;;21.52;25.19;95330.53;6222973;28;20042;-66
2022/05/22 07:33:55;;;;;;;0.43;0.40;;;;;;;22.51;24.49;95347.53;6214482;28;20175;-65
2022/05/22 07:37:04;;;;;;;0.32;0.25;;;;;;;23.07;23.65;95336.16;6213733;28;20102;-67
2022/05/22 07:40:10;;;;;;;0.55;0.20;;;;;;;23.65;22.63;95327.94;6212066;28;20120;-65
2022/05/22 07:43:16;;;;;;;0.38;0.20;;;;;;;22.60;24.19;95341.72;6228665;28;20085;-66
2022/05/22 07:46:20;;;;;;;0.30;0.22;;;;;;;24.27;22.49;95341.47;6215315;28;21194;-66
2022/05/22 07:52:49;;;;;;;0.30;0.20;;;;;;;27.04;17.68;95322.31;6227719;28;20046;-67
2022/05/22 07:55:54;;;;;;;0.13;0.13;;;;;;;27.26;17.58;95342.22;6226783;28;20511;-65
2022/05/22 07:58:58;;;;;;;0.17;0.17;;;;;;;28.76;16.52;95335.38;6226614;28;20041;-66
2022/05/22 08:02:02;;;;;;;0.30;0.20;;;;;;;25.81;17.33;95333.06;6227273;28;20042;-65
2022/05/22 08:05:06;;;;;;;0.28;0.10;;;;;;;23.51;19.92;95326.38;6219658;28;20042;-64
2022/05/22 08:08:10;;;;;;;0.70;0.13;;;;;;;24.09;20.04;95333.34;6221809;28;20507;-65
2022/05/22 08:11:14;;;;;;;0.20;0.15;;;;;;;26.35;18.02;95335.66;6214103;28;20045;-65
2022/05/22 08:14:19;;;;;;;0.57;0.30;;;;;;;26.74;17.38;95338.69;6224222;28;20042;-65
2022/05/22 08:17:24;;;;;;;0.17;0.10;;;;;;;23.56;19.62;95339.16;6216111;28;20670;-64
2022/05/22 08:20:34;;;;;;;0.20;0.20;;;;;;;19.63;23.67;95373.56;6197761;28;20033;-64
2022/05/22 08:23:39;;;;;;;0.32;0.22;;;;;;;16.91;27.46;95362.63;6207086;28;20089;-66
2022/05/22 08:26:43;;;;;;;1.70;0.70;;;;;;;15.31;30.72;95363.53;6217427;28;20030;-64
2022/05/22 08:29:48;;;;;;;0.43;0.38;;;;;;;14.24;32.81;95361.59;6220628;28;20033;-65
2022/05/22 08:32:55;;;;;;;0.88;0.50;;;;;;;13.30;35.15;95357.91;6213070;28;20041;-64
2022/05/22 08:36:00;;;;;;;0.60;0.40;;;;;;;13.20;35.62;95346.59;6213110;28;20038;-66
2022/05/22 08:39:05;;;;;;;0.52;0.40;;;;;;;13.65;34.76;95346.44;6218155;28;20045;-65
2022/05/22 08:42:18;;;;;;;0.50;0.50;;;;;;;14.33;33.94;95347.44;6225755;28;20096;-66
2022/05/22 08:45:29;;;;;;;0.35;0.30;;;;;;;14.29;33.04;95344.25;6224512;28;20033;-64
2022/05/22 08:48:47;;;;;;;0.52;0.35;;;;;;;14.45;32.26;95350.63;6223851;28;20041;-65
2022/05/22 08:51:56;;;;;;;0.68;0.40;;;;;;;13.90;32.74;95342.13;6223617;28;20325;-63
2022/05/22 08:55:16;;;;;;;0.63;0.32;;;;;;;14.19;31.90;95361.28;6225121;28;20037;-66
2022/05/22 09:02:12;;;;;;;0.20;0.20;;;;;;;16.53;28.93;95367.78;6224904;28;20412;-65
2022/05/22 09:05:21;;;;;;;0.40;0.25;;;;;;;16.16;30.22;95350.69;6228317;28;20041;-65
2022/05/22 09:08:48;;;;;;;0.30;0.28;;;;;;;14.91;32.00;95345.78;6226150;28;20034;-65
2022/05/22 09:12:29;;;;;;;1.13;0.43;;;;;;;16.54;30.76;95369.41;6176140;28;20508;-65
2022/05/22 09:16:11;;;;;;;0.40;0.20;;;;;;;19.69;26.00;95369.34;6187167;28;20046;-66
2022/05/22 09:19:26;;;;;;;0.30;0.17;;;;;;;19.45;25.65;95365.22;6177572;28;20051;-65
2022/05/22 09:22:38;;;;;;;1.08;0.30;;;;;;;20.75;24.46;95363.84;6198961;28;20046;-65
2022/05/22 09:26:20;;;;;;;1.40;0.30;;;;;;;23.97;22.12;95357.44;6198890;28;20050;-66
2022/05/22 09:29:39;;;;;;;0.28;0.28;;;;;;;24.30;19.59;95367.88;6213772;28;20185;-65
2022/05/22 09:33:00;;;;;;;0.50;0.30;;;;;;;21.48;21.23;95364.88;6197408;28;20042;-68
2022/05/22 09:36:21;;;;;;;1.15;0.30;;;;;;;18.77;23.98;95359.38;6176144;28;20046;-65
2022/05/22 09:39:27;;;;;;;0.43;0.30;;;;;;;15.92;28.12;95353.38;6175261;28;20425;-67
2022/05/22 09:42:59;;;;;;;1.10;0.28;;;;;;;14.93;30.75;95378.22;6191372;28;20046;-67
2022/05/22 09:46:18;;;;;;;0.68;0.40;;;;;;;14.82;31.26;95390.78;6185915;28;20039;-65
2022/05/22 09:49:33;;;;;;;0.93;0.40;;;;;;;16.58;29.58;95391.97;6170169;28;20034;-71
2022/05/22 09:52:50;;;;;;;0.32;0.30;;;;;;;19.29;25.43;95390.28;6162042;28;20054;-72
2022/05/22 09:56:07;;;;;;;0.80;0.40;;;;;;;20.08;23.63;95394.69;6174543;28;20046;-70
2022/05/22 09:59:48;;;;;;;1.35;0.30;;;;;;;19.54;24.28;95396.06;6174080;28;20133;-71
2022/05/22 10:03:18;;;;;;;1.33;0.50;;;;;;;19.83;24.56;95386.28;6172790;28;20042;-72
2022/05/22 10:06:53;;;;;;;1.15;0.50;;;;;;;18.60;25.67;95385.38;6195411;28;20042;-70
2022/05/22 10:10:27;;;;;;;0.55;0.40;;;;;;;17.61;27.15;95390.03;6206908;28;20050;-70
2022/05/22 10:13:47;;;;;;;0.43;0.38;;;;;;;20.55;24.04;95390.47;6218544;28;20522;-71
2022/05/22 10:17:03;;;;;;;0.63;0.40;;;;;;;22.06;21.77;95400.97;6221673;28;20144;-71
2022/05/22 10:20:43;;;;;;;0.88;0.65;;;;;;;21.39;21.90;95397.41;6220703;28;20065;-72
2022/05/22 10:24:26;;;;;;;0.30;0.30;;;;;;;18.70;24.56;95391.22;6195820;28;20423;-70
2022/05/22 10:27:51;;;;;;;0.40;0.30;;;;;;;17.53;26.35;95387.44;6196400;28;20046;-70
2022/05/22 10:31:17;;;;;;;1.90;0.50;;;;;;;16.12;28.68;95372.41;6222201;28;20052;-70
2022/05/22 10:34:46;;;;;;;0.80;0.60;;;;;;;14.94;30.59;95378.06;6221850;28;20495;-70
2022/05/22 10:38:17;;;;;;;0.65;0.35;;;;;;;14.63;30.93;95391.06;6213177;28;20042;-71
2022/05/22 10:44:56;;;;;;;0.30;0.30;;;;;;;15.35;29.73;95377.28;6197159;28;20042;-71
2022/05/22 10:48:21;;;;;;;1.05;0.32;;;;;;;14.60;30.85;95381.59;6197341;28;20046;-71
2022/05/22 10:51:29;;;;;;;0.60;0.50;;;;;;;16.32;28.78;95383.44;6197168;28;20049;-71
2022/05/22 10:54:52;;;;;;;0.80;0.57;;;;;;;16.63;27.62;95390.63;6197194;28;20522;-71
2022/05/22 10:58:01;;;;;;;1.05;0.52;;;;;;;15.59;27.84;95377.25;6221539;28;20046;-71
2022/05/22 11:01:20;;;;;;;0.85;0.70;;;;;;;16.44;26.91;95381.25;6202834;28;20046;-71
2022/05/22 11:04:38;;;;;;;0.98;0.60;;;;;;;16.99;26.21;95413.06;6220252;28;20042;-72
2022/05/22 11:07:51;;;;;;;0.52;0.52;;;;;;;17.72;24.75;95424.19;6221243;28;20041;-72
2022/05/22 11:11:01;;;;;;;0.30;0.30;;;;;;;17.59;24.74;95392.03;6220087;28;20504;-71
2022/05/22 11:14:19;;;;;;;0.85;0.50;;;;;;;17.58;25.05;95403.66;6218575;28;20050;-71
2022/05/22 11:17:23;;;;;;;2.97;1.10;;;;;;;17.68;25.06;95406.91;6221014;28;20045;-70
2022/05/22 11:20:29;;;;;;;1.58;1.27;;;;;;;17.50;24.51;95420.53;6219406;28;20042;-70
2022/05/22 11:23:54;;;;;;;1.27;0.80;;;;;;;16.04;26.17;95413.03;6215507;28;20045;-71
2022/05/22 11:27:02;;;;;;;0.80;0.68;;;;;;;14.61;28.32;95411.59;6220408;28;20424;-70
2022/05/22 11:30:18;;;;;;;1.20;0.50;;;;;;;13.90;29.07;95400.28;6208469;28;20053;-72
2022/05/22 11:33:53;;;;;;;0.60;0.57;;;;;;;13.89;29.22;95403.09;6194978;28;20058;-70
2022/05/22 11:37:13;;;;;;;1.50;0.82;;;;;;;13.78;29.62;95411.28;6196133;28;20416;-71
2022/05/22 11:40:25;;;;;;;0.75;0.63;;;;;;;14.28;28.96;95403.47;6196275;28;20046;-70
2022/05/22 11:44:08;;;;;;;1.48;0.82;;;;;;;15.36;28.47;95434.59;6196213;28;20451;-70
2022/05/22 11:47:36;;;;;;;1.02;0.63;;;;;;;16.03;27.52;95423.84;6208663;28;20041;-70
2022/05/22 11:50:45;;;;;;;0.82;0.45;;;;;;;15.63;26.64;95405.13;6220389;28;20103;-71
2022/05/22 11:54:09;;;;;;;1.00;0.60;;;;;;;15.50;25.49;95436.59;6220305;28;20044;-71
2022/05/22 11:57:26;;;;;;;1.27;0.50;;;;;;;15.63;25.32;95420.19;6220304;28;20038;-70
2022/05/22 12:00:38;;;;;;;0.65;0.50;;;;;;;15.74;25.49;95416.38;6220304;28;20042;-70
2022/05/22 12:04:09;;;;;;;1.33;0.60;;;;;;;15.93;24.77;95421.34;6219597;28;20049;-70
2022/05/22 12:07:18;;;;;;;0.90;0.65;;;;;;;15.19;25.62;95431.91;6220281;28;20507;-70
2022/05/22 12:10:34;;;;;;;1.80;0.77;;;;;;;14.72;26.27;95421.88;6231334;28;20053;-71
2022/05/22 12:14:01;;;;;;;0.85;0.63;;;;;;;14.61;26.75;95424.81;6247749;28;20041;-70
2022/05/22 12:17:12;;;;;;;1.00;0.77;;;;;;;15.56;25.54;95404.09;6244903;28;20045;-69
2022/05/22 12:20:27;;;;;;;0.60;0.60;;;;;;;16.26;24.49;95416.00;6232007;28;20045;-69
2022/05/22 12:23:42;;;;;;;1.30;0.73;;;;;;;16.49;23.87;95416.91;6229579;28;20443;-70
2022/05/22 12:26:50;;;;;;;2.45;0.85;;;;;;;16.26;23.97;95434.56;6232443;28;20049;-69
2022/05/22 12:30:14;;;;;;;1.77;1.02;;;;;;;16.11;24.08;95432.59;6223826;28;20037;-72
2022/05/22 12:33:19;;;;;;;1.63;0.80;;;;;;;15.92;24.57;95427.66;6232918;28;20084;-70
2022/05/22 12:36:27;;;;;;;1.63;0.60;;;;;;;15.85;24.71;95445.22;6236557;28;20638;-70
2022/05/22 12:39:38;;;;;;;1.15;1.05;;;;;;;15.08;25.41;95426.91;6222780;28;20115;-69
2022/05/22 12:42:50;;;;;;;1.80;1.27;;;;;;;14.55;26.40;95436.03;6233514;28;20037;-69
2022/05/22 12:46:01;;;;;;;2.17;1.20;;;;;;;14.52;26.44;95436.34;6212245;28;20046;-69
2022/05/22 12:49:10;;;;;;;1.48;1.10;;;;;;;14.93;25.87;95423.25;6206403;28;20050;-70
2022/05/22 12:52:28;;;;;;;1.17;0.88;;;;;;;14.84;26.03;95434.81;6227621;28;20050;-69
2022/05/22 12:55:37;;;;;;;1.45;1.02;;;;;;;14.72;26.02;95436.91;6220550;28;20514;-69
2022/05/22 12:58:54;;;;;;;1.25;1.15;;;;;;;14.70;26.18;95445.03;6226196;28;20033;-75
2022/05/22 13:02:01;;;;;;;0.70;0.70;;;;;;;14.41;25.56;95455.13;6238047;28;20040;-72
2022/05/22 13:05:26;;;;;;;1.48;0.70;;;;;;;14.28;25.78;95451.09;6214887;28;20045;-68
2022/05/22 13:08:55;;;;;;;0.82;0.60;;;;;;;14.36;25.09;95464.38;6227182;28;20052;-72
2022/05/22 13:12:15;;;;;;;3.00;1.40;;;;;;;14.27;25.14;95453.91;6199207;28;20046;-69
2022/05/22 13:15:25;;;;;;;3.95;1.67;;;;;;;14.25;25.49;95451.41;6228368;28;20103;-72
2022/05/22 13:18:32;;;;;;;5.53;2.70;;;;;;;14.25;25.35;95472.56;6219064;28;20042;-72
2022/05/22 13:21:40;;;;;;;2.60;1.80;;;;;;;14.25;25.36;95458.53;6231651;28;20523;-71
2022/05/22 13:24:52;;;;;;;4.03;1.27;;;;;;;14.30;25.20;95475.59;6221227;28;20046;-70
2022/05/22 13:27:57;;;;;;;1.10;1.00;;;;;;;14.20;25.10;95469.56;6220251;28;20118;-71
2022/05/22 13:31:06;;;;;;;1.48;1.10;;;;;;;14.32;25.54;95478.91;6228513;28;20492;-70
2022/05/22 13:34:25;;;;;;;1.20;0.77;;;;;;;14.08;26.14;95484.88;6235476;28;20041;-70
2022/05/22 13:37:31;;;;;;;1.63;0.82;;;;;;;13.80;26.73;95468.28;6223818;28;20045;-71
2022/05/22 13:41:20;;;;;;;1.40;1.10;;;;;;;13.49;27.20;95481.09;6228342;28;20053;-71
2022/05/22 13:44:29;;;;;;;1.10;0.82;;;;;;;13.48;26.82;95480.25;6179996;28;20045;-72
2022/05/22 13:47:56;;;;;;;1.05;0.90;;;;;;;13.30;27.12;95484.69;6221098;28;20034;-71
2022/05/22 13:55:25;;;;;;;1.67;1.02;;;;;;;13.01;27.50;95488.34;6128034;29;20051;-70
2022/05/22 13:58:37;;;;;;;1.98;1.10;;;;;;;13.17;27.43;95494.78;6143222;28;20445;-71
2022/05/22 14:01:43;;;;;;;2.28;1.60;;;;;;;13.30;27.70;95494.44;6227688;28;20042;-70
2022/05/22 14:04:49;;;;;;;1.65;1.50;;;;;;;13.02;28.26;95499.72;6223927;28;20069;-71
2022/05/22 14:07:55;;;;;;;2.28;1.52;;;;;;;12.66;28.73;95504.09;6225725;28;20132;-72
2022/05/22 14:11:08;;;;;;;2.85;1.50;;;;;;;12.32;29.35;95507.28;6233522;28;20415;-64
2022/05/22 14:14:32;;;;;;;3.40;1.30;;;;;;;12.37;29.57;95510.31;6224889;28;20033;-64
2022/05/22 14:17:36;;;;;;;2.10;1.50;;;;;;;12.35;29.50;95504.34;6205298;28;20049;-65
2022/05/22 14:20:47;;;;;;;2.38;1.20;;;;;;;12.41;29.94;95509.03;6227644;28;20045;-63
2022/05/22 14:27:29;;;;;;;1.48;1.27;;;;;;;12.49;34.57;95527.63;6221793;28;20396;-66
2022/05/22 14:30:39;;;;;;;2.55;1.67;;;;;;;12.42;36.05;95531.81;6220770;28;20041;-65
2022/05/22 14:33:42;;;;;;;2.15;1.00;;;;;;;12.08;36.94;95537.56;6222228;28;20084;-69
2022/05/22 14:36:58;;;;;;;1.13;0.80;;;;;;;11.91;37.67;95543.56;6226202;28;20038;-69
2022/05/22 14:40:03;;;;;;;3.53;1.15;;;;;;;11.76;38.20;95543.13;6220844;28;20050;-70
2022/05/22 14:43:08;;;;;;;1.75;1.20;;;;;;;11.24;39.06;95559.19;6230024;28;20420;-69
2022/05/22 14:46:25;;;;;;;1.77;0.70;;;;;;;10.92;39.68;95563.78;6221724;28;20046;-68
2022/05/22 14:49:39;;;;;;;1.90;1.15;;;;;;;10.35;40.69;95560.78;6220149;28;20050;-69
2022/05/22 14:52:48;;;;;;;1.60;1.20;;;;;;;9.85;41.88;95568.44;6203616;28;20077;-68
2022/05/22 14:56:09;;;;;;;1.42;1.10;;;;;;;9.39;43.10;95562.53;6211619;28;20045;-69
2022/05/22 14:59:18;;;;;;;1.17;0.82;;;;;;;9.15;43.50;95559.28;6233623;28;20045;-68
2022/05/22 15:02:48;;;;;;;0.80;0.70;;;;;;;8.91;44.17;95578.63;6206358;28;20128;-69
2022/05/22 15:05:56;;;;;;;0.75;0.75;;;;;;;8.65;45.21;95579.84;6211553;28;20045;-69
2022/05/22 15:09:05;;;;;;;1.92;1.10;;;;;;;8.46;46.05;95576.00;6233196;28;20041;-69
2022/05/22 15:12:12;;;;;;;2.50;1.00;;;;;;;8.41;46.46;95574.72;6214050;28;20503;-68
2022/05/22 15:15:33;;;;;;;3.67;1.00;;;;;;;8.46;46.82;95577.81;6232934;28;20042;-68
2022/05/22 15:25:49;;;;;;;1.30;0.90;;;;;;;8.75;46.16;95591.28;6222940;28;20402;-70
2022/05/22 15:28:53;;;;;;;2.53;1.90;;;;;;;8.75;46.30;95596.53;6237739;28;20041;-68
2022/05/22 15:32:07;;;;;;;;;;;;;;;8.72;46.15;95588.91;6222051;28;20590;-69
2022/05/22 15:35:12;;;;;;;1.77;1.00;;;;;;;8.65;46.73;95595.56;6229511;28;19921;-69